Time;durP1;ratioP1;P1;durP2;ratioP2;P2;SDS_P1;SDS_P2;PMS_P1;PMS_P2;Temp;Humidity;BMP_temperature;BMP_pressure;BME280_temperature;BME280_humidity;BME280_pressure;Samples;Min_cycle;Max_cycle;Signal;HPM_P1;HPM_P2
2023/10/11 00:03:53;;;;;;;7.10;3.08;;;;;;;17.83;63.15;100499.28;10375955;28;20160;-59
2023/10/11 00:08:56;;;;;;;10.75;4.03;;;;;;;17.79;63.27;100498.94;10379736;28;20144;-57
2023/10/11 00:13:57;;;;;;;10.95;3.38;;;;;;;17.83;63.16;100508.34;10377621;28;20115;-57
2023/10/11 00:18:58;;;;;;;8.90;3.28;;;;;;;17.87;63.16;100497.00;10377577;28;20042;-58
2023/10/11 00:24:01;;;;;;;9.32;3.42;;;;;;;17.85;63.16;100508.09;10377340;28;20053;-56
2023/10/11 00:29:04;;;;;;;13.38;3.45;;;;;;;17.88;62.95;100499.50;10375342;28;20046;-56
2023/10/11 00:34:10;;;;;;;9.98;3.10;;;;;;;17.88;63.05;100499.50;10375075;28;20073;-56
2023/10/11 00:39:17;;;;;;;9.83;4.00;;;;;;;17.90;62.97;100488.41;10375492;28;20069;-58
2023/10/11 00:44:22;;;;;;;10.00;3.35;;;;;;;17.84;63.04;100480.06;10379979;28;20546;-56
2023/10/11 00:49:34;;;;;;;11.63;4.22;;;;;;;17.74;63.23;100487.03;10373809;28;20057;-56
2023/10/11 00:54:43;;;;;;;10.43;3.08;;;;;;;17.72;63.17;100481.81;10377005;28;20493;-56
2023/10/11 00:59:45;;;;;;;14.15;3.33;;;;;;;17.70;63.17;100488.53;10373013;28;20049;-58
2023/10/11 01:04:46;;;;;;;6.88;2.80;;;;;;;17.66;63.18;100482.69;10372117;28;20072;-57
2023/10/11 01:09:48;;;;;;;13.30;3.90;;;;;;;17.69;62.99;100476.81;10373168;28;20366;-56
2023/10/11 01:14:58;;;;;;;11.77;4.00;;;;;;;17.67;63.01;100473.47;10369656;28;20096;-57
2023/10/11 01:20:01;;;;;;;12.23;3.72;;;;;;;17.61;62.98;100475.22;10372376;28;20041;-56
2023/10/11 01:25:04;;;;;;;10.40;3.92;;;;;;;17.55;62.97;100470.63;10371599;28;20038;-59
2023/10/11 01:30:07;;;;;;;11.63;3.60;;;;;;;17.49;62.97;100467.97;10373629;28;20049;-57
2023/10/11 01:35:12;;;;;;;9.40;4.70;;;;;;;17.36;63.29;100463.44;10370000;28;20049;-56
2023/10/11 01:40:31;;;;;;;10.05;3.85;;;;;;;17.25;63.42;100459.53;10378644;28;20113;-64
2023/10/11 01:45:33;;;;;;;9.43;3.58;;;;;;;17.12;63.54;100455.00;10371423;28;20056;-57
2023/10/11 01:50:37;;;;;;;8.90;3.65;;;;;;;17.04;63.96;100461.50;10371491;28;20038;-56
2023/10/11 01:55:39;;;;;;;10.07;4.47;;;;;;;16.88;64.29;100472.00;10372311;28;20060;-58
2023/10/11 02:00:40;;;;;;;11.07;4.40;;;;;;;16.92;64.43;100454.25;10369884;28;20505;-57
2023/10/11 02:05:42;;;;;;;9.68;4.25;;;;;;;16.89;64.65;100460.13;10380459;28;20038;-58
2023/10/11 02:10:44;;;;;;;12.05;4.00;;;;;;;16.85;64.52;100452.38;10371094;28;20037;-56
2023/10/11 02:15:48;;;;;;;14.98;4.30;;;;;;;16.87;64.45;100456.78;10373376;28;20045;-56
2023/10/11 02:20:49;;;;;;;12.10;4.35;;;;;;;16.84;64.50;100453.47;10366781;28;20033;-57
2023/10/11 02:25:51;;;;;;;11.40;3.70;;;;;;;16.77;64.87;100451.78;10371390;28;20049;-57
2023/10/11 02:30:53;;;;;;;13.38;4.00;;;;;;;16.69;64.81;100441.16;10371112;28;20046;-56
2023/10/11 02:35:57;;;;;;;9.52;3.70;;;;;;;16.61;65.22;100442.22;10372379;28;20054;-55
2023/10/11 02:40:59;;;;;;;9.90;3.92;;;;;;;16.61;65.07;100445.75;10379255;28;20046;-56
2023/10/11 02:46:03;;;;;;;8.98;4.22;;;;;;;16.61;65.23;100432.19;10379951;28;20049;-56
2023/10/11 02:51:13;;;;;;;12.55;4.40;;;;;;;16.57;65.33;100430.13;10373793;28;20045;-56
2023/10/11 02:56:15;;;;;;;7.43;3.45;;;;;;;16.51;65.39;100431.81;10381007;28;20042;-56
2023/10/11 03:01:20;;;;;;;13.02;4.25;;;;;;;16.52;65.27;100438.91;10382453;28;20056;-56
2023/10/11 03:06:22;;;;;;;9.85;3.53;;;;;;;16.48;65.69;100431.41;10378828;28;20046;-56
2023/10/11 03:11:25;;;;;;;11.98;4.53;;;;;;;16.49;65.96;100436.63;10381827;28;20401;-55
2023/10/11 03:16:27;;;;;;;9.60;3.85;;;;;;;16.53;65.43;100428.88;10377811;28;20042;-56
2023/10/11 03:21:33;;;;;;;12.88;4.10;;;;;;;16.51;65.73;100437.25;10376298;28;20057;-56
2023/10/11 03:26:38;;;;;;;11.53;4.40;;;;;;;16.47;65.82;100427.88;10376221;28;20041;-56
2023/10/11 03:31:42;;;;;;;13.05;4.75;;;;;;;16.42;66.18;100411.38;10377779;28;20046;-57
2023/10/11 03:36:51;;;;;;;14.88;4.53;;;;;;;16.46;65.82;100413.44;10377536;28;20101;-56
2023/10/11 03:42:07;;;;;;;11.93;4.18;;;;;;;16.44;65.98;100410.09;10379482;28;20045;-56
2023/10/11 03:47:09;;;;;;;9.10;4.25;;;;;;;16.41;66.34;100405.13;10374902;28;20060;-55
2023/10/11 03:52:19;;;;;;;11.15;4.75;;;;;;;16.40;66.31;100408.88;10382767;28;20137;-57
2023/10/11 03:57:22;;;;;;;10.70;4.90;;;;;;;16.37;66.49;100411.16;10380522;28;20053;-58
2023/10/11 04:02:24;;;;;;;16.23;4.30;;;;;;;16.37;66.55;100416.59;10372175;28;20041;-57
2023/10/11 04:07:27;;;;;;;10.00;4.20;;;;;;;16.37;66.40;100416.59;10376374;28;20125;-58
2023/10/11 04:12:30;;;;;;;12.15;5.25;;;;;;;16.39;66.40;100409.06;10376110;28;20042;-58
2023/10/11 04:17:38;;;;;;;11.68;4.50;;;;;;;16.39;66.37;100412.66;10379630;28;20042;-58
2023/10/11 04:22:49;;;;;;;12.30;4.28;;;;;;;16.43;66.00;100422.03;10376335;28;20576;-57
2023/10/11 04:27:57;;;;;;;11.00;4.30;;;;;;;16.41;66.27;100407.84;10375872;28;20522;-57
2023/10/11 04:33:01;;;;;;;12.50;4.72;;;;;;;16.39;66.00;100419.94;10373558;28;20052;-57
2023/10/11 04:38:04;;;;;;;14.32;5.25;;;;;;;16.34;66.08;100414.31;10372589;28;20045;-57
2023/10/11 04:43:11;;;;;;;13.85;4.75;;;;;;;16.30;66.38;100413.91;10376748;28;20049;-57
2023/10/11 04:48:18;;;;;;;;;;;;;;;16.24;66.25;100417.47;10374722;28;20080;-57
2023/10/11 04:53:22;;;;;;;15.83;4.83;;;;;;;16.19;66.53;100423.53;10371243;28;19932;-57
2023/10/11 05:03:46;;;;;;;15.20;4.68;;;;;;;16.19;66.63;100417.25;10375244;28;20370;-56
2023/10/11 05:08:51;;;;;;;11.23;4.55;;;;;;;16.18;66.61;100421.84;10373088;28;20103;-55
2023/10/11 05:19:35;;;;;;;13.90;4.03;;;;;;;16.24;66.43;100418.28;10307892;28;20054;-56
2023/10/11 05:30:26;;;;;;;12.70;5.07;;;;;;;16.28;66.02;100421.44;10305984;28;20073;-56
2023/10/11 05:51:29;;;;;;;11.85;4.63;;;;;;;16.32;65.60;100438.94;10329680;28;20038;-59
2023/10/11 05:56:41;;;;;;;13.88;5.00;;;;;;;16.22;66.25;100449.41;10331400;28;20572;-60
2023/10/11 06:01:46;;;;;;;15.43;5.50;;;;;;;16.14;65.98;100464.00;10333259;28;20140;-59
2023/10/11 06:06:49;;;;;;;10.65;5.00;;;;;;;16.14;66.35;100460.47;10337569;28;20042;-59
2023/10/11 06:11:50;;;;;;;15.68;5.60;;;;;;;16.14;66.94;100461.28;10339669;28;20046;-61
2023/10/11 06:16:58;;;;;;;11.57;5.50;;;;;;;16.12;66.68;100466.09;10340925;28;20476;-60
2023/10/11 06:22:00;;;;;;;16.58;5.80;;;;;;;16.18;66.32;100453.59;10340036;28;20042;-61
2023/10/11 06:32:29;;;;;;;18.33;5.72;;;;;;;16.30;66.41;100451.06;10337348;28;20057;-60
2023/10/11 06:37:34;;;;;;;15.10;6.45;;;;;;;16.28;66.94;100464.81;10340108;28;20046;-60
2023/10/11 06:42:36;;;;;;;15.88;5.07;;;;;;;16.35;66.70;100451.25;10335459;28;20042;-60
2023/10/11 06:47:37;;;;;;;16.50;5.13;;;;;;;16.40;66.66;100465.84;10340548;28;20050;-60
2023/10/11 06:52:43;;;;;;;19.52;6.93;;;;;;;16.39;66.96;100466.91;10337114;28;20230;-60
2023/10/11 06:57:50;;;;;;;16.47;7.37;;;;;;;16.46;67.10;100453.31;10337173;28;20046;-60
2023/10/11 07:08:10;;;;;;;14.40;5.05;;;;;;;16.63;66.77;100451.81;10338874;28;20046;-60
2023/10/11 07:13:13;;;;;;;14.43;4.35;;;;;;;16.74;66.45;100447.59;10335750;28;20147;-60
2023/10/11 07:18:25;;;;;;;14.98;4.10;;;;;;;16.85;66.28;100440.72;10337897;28;20064;-60
2023/10/11 07:23:35;;;;;;;8.63;3.88;;;;;;;17.01;65.88;100461.09;10338592;28;20060;-59
2023/10/11 07:28:37;;;;;;;11.98;4.35;;;;;;;17.11;65.68;100460.66;10340038;28;20201;-60
2023/10/11 07:33:38;;;;;;;14.10;4.38;;;;;;;17.24;65.35;100452.44;10336640;28;20046;-60
2023/10/11 07:38:43;;;;;;;13.25;4.65;;;;;;;17.39;64.62;100461.09;10336178;28;20049;-60
2023/10/11 07:43:45;;;;;;;11.93;4.35;;;;;;;17.49;64.62;100462.53;10338366;28;20042;-60
2023/10/11 07:48:47;;;;;;;10.15;3.70;;;;;;;17.59;64.22;100465.59;10335838;28;20056;-60
2023/10/11 07:53:50;;;;;;;19.70;4.47;;;;;;;17.76;63.97;100466.72;10334347;28;20058;-60
2023/10/11 07:58:53;;;;;;;11.25;4.13;;;;;;;17.89;63.49;100465.84;10338321;28;20137;-60
2023/10/11 08:03:55;;;;;;;11.68;4.80;;;;;;;18.04;62.95;100489.97;10339555;28;20050;-59
2023/10/11 08:08:59;;;;;;;17.75;4.78;;;;;;;18.17;62.74;100478.16;10331487;28;20045;-61
2023/10/11 08:14:02;;;;;;;13.80;4.20;;;;;;;18.30;62.45;100472.56;10335488;28;20093;-61
2023/10/11 08:19:04;;;;;;;10.65;4.32;;;;;;;18.39;62.14;100465.78;10338095;28;20046;-61
2023/10/11 08:24:15;;;;;;;17.17;5.13;;;;;;;18.64;61.77;100475.78;10333907;28;20062;-60
2023/10/11 08:29:28;;;;;;;18.65;4.95;;;;;;;18.74;61.47;100473.38;10334660;28;20045;-60
2023/10/11 08:34:30;;;;;;;12.18;4.63;;;;;;;18.91;60.95;100475.53;10332130;28;20104;-61
2023/10/11 08:39:47;;;;;;;10.93;4.15;;;;;;;18.98;61.04;100457.22;10334421;28;20202;-61
2023/10/11 08:44:49;;;;;;;13.27;4.67;;;;;;;19.21;60.63;100456.47;10334561;28;20046;-62
2023/10/11 08:49:53;;;;;;;14.77;4.00;;;;;;;19.28;60.28;100461.84;10336793;28;20124;-62
2023/10/11 08:54:58;;;;;;;11.20;4.50;;;;;;;19.46;60.13;100450.88;10334191;28;20041;-62
2023/10/11 09:00:00;;;;;;;17.65;4.40;;;;;;;19.59;59.71;100463.50;10337467;28;20056;-64
2023/10/11 09:05:24;;;;;;;10.10;3.65;;;;;;;19.77;59.22;100455.28;10336578;28;20125;-63
2023/10/11 09:10:33;;;;;;;12.82;4.30;;;;;;;19.86;59.20;100454.91;10334014;28;20519;-62
2023/10/11 09:15:43;;;;;;;16.38;4.60;;;;;;;20.03;58.63;100447.72;10339733;28;20467;-61
2023/10/11 09:26:08;;;;;;;9.52;3.42;;;;;;;20.35;57.48;100445.44;10332307;28;20696;-63
2023/10/11 09:31:12;;;;;;;8.70;3.95;;;;;;;20.51;57.42;100446.63;10337076;28;20042;-64
2023/10/11 09:36:16;;;;;;;9.55;3.05;;;;;;;20.68;57.28;100449.50;10333215;28;20369;-63
2023/10/11 09:41:21;;;;;;;7.70;2.90;;;;;;;20.85;56.59;100443.25;10335572;28;20056;-63
2023/10/11 09:46:29;;;;;;;10.77;3.05;;;;;;;20.98;56.45;100445.72;10338576;28;20699;-63
2023/10/11 09:51:31;;;;;;;7.95;3.35;;;;;;;21.05;56.04;100438.22;10333685;28;20124;-67
2023/10/11 09:56:57;;;;;;;8.88;2.78;;;;;;;21.13;55.68;100426.91;10335097;28;20042;-60
2023/10/11 10:02:23;;;;;;;12.35;3.33;;;;;;;21.23;55.48;100433.63;10330484;28;20046;-61
2023/10/11 10:07:32;;;;;;;11.40;2.80;;;;;;;21.24;55.51;100441.56;10325446;28;20115;-60
2023/10/11 10:12:55;;;;;;;10.27;2.90;;;;;;;21.26;54.87;100438.59;10331642;28;20042;-61
2023/10/11 10:17:56;;;;;;;7.18;2.92;;;;;;;21.39;54.59;100438.31;10331068;28;20053;-62
2023/10/11 10:23:16;;;;;;;13.40;2.75;;;;;;;21.52;54.28;100427.06;10326218;28;21303;-61
2023/10/11 10:28:36;;;;;;;7.47;2.80;;;;;;;21.66;53.85;100427.59;10332406;28;20073;-60
2023/10/11 10:33:39;;;;;;;9.65;2.85;;;;;;;21.85;53.46;100428.19;10336590;28;20056;-60
2023/10/11 10:38:59;;;;;;;9.05;3.22;;;;;;;21.95;53.31;100428.34;10329248;28;20041;-59
2023/10/11 10:44:17;;;;;;;10.45;2.75;;;;;;;22.08;52.92;100429.09;10332271;28;20042;-61
2023/10/11 10:49:37;;;;;;;13.25;2.65;;;;;;;22.11;52.95;100420.38;10331472;28;20050;-62
2023/10/11 10:55:05;;;;;;;9.35;3.85;;;;;;;22.32;52.46;100405.94;10332746;28;20042;-61
2023/10/11 11:00:20;;;;;;;11.48;2.67;;;;;;;22.54;52.12;100411.41;10336694;28;20073;-60
2023/10/11 11:05:29;;;;;;;6.88;2.40;;;;;;;22.62;51.91;100417.56;10341206;28;20070;-60
2023/10/11 11:10:33;;;;;;;13.20;2.88;;;;;;;22.82;51.04;100415.06;10341592;28;20188;-61
2023/10/11 11:15:36;;;;;;;9.88;2.60;;;;;;;22.99;51.29;100398.53;10336377;28;20060;-61
2023/10/11 11:20:41;;;;;;;12.25;2.55;;;;;;;23.29;51.04;100397.22;10332985;28;20054;-61
2023/10/11 11:25:51;;;;;;;9.15;2.70;;;;;;;23.43;50.53;100379.25;10338646;28;20509;-60
2023/10/11 11:31:10;;;;;;;11.30;3.03;;;;;;;23.65;50.04;100381.91;10338083;28;20050;-61
2023/10/11 11:36:22;;;;;;;12.00;2.55;;;;;;;23.98;49.66;100373.66;10339139;28;20128;-61
2023/10/11 11:41:23;;;;;;;10.35;3.35;;;;;;;24.42;48.06;100374.19;10349593;28;20038;-62
2023/10/11 11:46:29;;;;;;;15.55;2.72;;;;;;;24.99;47.23;100358.72;10329891;28;20532;-60
2023/10/11 11:51:33;;;;;;;13.30;3.38;;;;;;;25.24;47.13;100348.91;10335648;28;20378;-61
2023/10/11 11:56:35;;;;;;;8.05;2.45;;;;;;;25.59;46.08;100338.97;10346126;28;20490;-60
2023/10/11 12:01:36;;;;;;;12.77;2.70;;;;;;;25.74;45.59;100327.97;10334094;28;20050;-59
2023/10/11 12:06:38;;;;;;;8.90;2.58;;;;;;;25.96;45.04;100329.59;10332841;28;20050;-61
2023/10/11 12:11:39;;;;;;;10.93;2.22;;;;;;;26.22;44.96;100322.06;10326018;28;20050;-58
2023/10/11 12:16:44;;;;;;;10.40;2.33;;;;;;;26.35;45.04;100313.22;10327662;28;20398;-59
2023/10/11 12:21:46;;;;;;;11.55;2.60;;;;;;;26.64;44.02;100313.38;10335123;28;20048;-59
2023/10/11 12:26:47;;;;;;;7.70;2.50;;;;;;;27.25;42.89;100300.28;10329565;28;20389;-59
2023/10/11 12:31:48;;;;;;;9.38;2.05;;;;;;;27.51;41.92;100287.09;10335848;28;20101;-65
2023/10/11 12:36:55;;;;;;;6.05;2.47;;;;;;;28.01;41.40;100290.44;10338303;28;20042;-59
2023/10/11 12:41:59;;;;;;;6.45;2.60;;;;;;;27.88;41.20;100286.47;10340141;28;20083;-61
2023/10/11 12:47:00;;;;;;;10.27;2.40;;;;;;;27.96;40.89;100276.69;10341224;28;20049;-61
2023/10/11 12:52:05;;;;;;;8.75;2.85;;;;;;;28.17;40.26;100277.25;10353940;28;20038;-62
2023/10/11 12:57:07;;;;;;;13.30;1.90;;;;;;;28.08;39.87;100268.81;10355657;28;20369;-67
2023/10/11 13:02:14;;;;;;;8.95;1.75;;;;;;;28.28;39.74;100258.63;10345614;28;20694;-62
2023/10/11 13:07:16;;;;;;;6.03;1.90;;;;;;;28.39;38.84;100257.34;10369008;28;20054;-67
2023/10/11 13:12:17;;;;;;;8.68;1.50;;;;;;;28.45;38.23;100249.81;10352227;28;20045;-64
2023/10/11 13:17:19;;;;;;;9.02;2.10;;;;;;;28.70;37.86;100245.06;10341805;28;20073;-64
2023/10/11 13:22:21;;;;;;;7.68;1.65;;;;;;;28.81;36.91;100246.53;10336461;28;20146;-65
2023/10/11 13:27:22;;;;;;;8.38;1.80;;;;;;;28.81;37.15;100235.47;10338974;28;20050;-65
2023/10/11 13:32:24;;;;;;;9.38;1.55;;;;;;;29.01;36.44;100224.06;10341604;28;20081;-66
2023/10/11 13:37:27;;;;;;;7.35;1.95;;;;;;;29.22;35.82;100223.75;10358781;28;20109;-67
2023/10/11 13:42:29;;;;;;;7.28;1.88;;;;;;;29.40;35.99;100211.75;10325828;28;20137;-67
2023/10/11 13:47:36;;;;;;;7.50;2.13;;;;;;;29.42;35.11;100205.91;10343901;28;20142;-69
2023/10/11 13:52:39;;;;;;;5.55;1.33;;;;;;;29.50;35.02;100202.44;10336603;28;20053;-68
2023/10/11 13:57:45;;;;;;;7.55;1.40;;;;;;;29.78;34.46;100200.53;10332457;28;20051;-68
2023/10/11 14:02:48;;;;;;;4.63;1.45;;;;;;;29.78;33.71;100186.69;10325072;28;20045;-68
2023/10/11 14:07:52;;;;;;;8.32;2.05;;;;;;;29.75;33.30;100178.16;10314368;23;20062;-79
2023/10/11 14:13:07;;;;;;;9.98;1.60;;;;;;;29.79;33.68;100173.66;10329178;28;20150;-78
2023/10/11 14:18:15;;;;;;;7.63;1.85;;;;;;;29.83;33.52;100174.66;10325882;28;20068;-78
2023/10/11 14:23:16;;;;;;;7.60;1.20;;;;;;;29.92;32.97;100161.72;10317298;28;20060;-78
2023/10/11 14:28:18;;;;;;;6.95;1.77;;;;;;;30.25;32.45;100165.16;10283263;28;20054;-79
2023/10/11 14:33:19;;;;;;;6.35;1.98;;;;;;;30.21;31.97;100163.28;10295867;28;20665;-78
2023/10/11 14:38:22;;;;;;;6.05;1.42;;;;;;;30.16;31.71;100161.47;10314068;28;20515;-79
2023/10/11 14:43:24;;;;;;;3.97;1.35;;;;;;;30.19;31.23;100148.91;10310313;28;20401;-78
2023/10/11 14:48:25;;;;;;;6.13;1.50;;;;;;;30.21;30.93;100153.03;10283983;28;20031;-81
2023/10/11 14:53:27;;;;;;;6.03;1.23;;;;;;;29.87;31.92;100147.16;10309861;28;20133;-82
2023/10/11 14:58:28;;;;;;;9.45;1.58;;;;;;;29.75;31.41;100137.41;10325623;28;20465;-81
2023/10/11 15:03:30;;;;;;;7.93;1.42;;;;;;;29.58;31.86;100138.03;10300254;28;20069;-80
2023/10/11 15:08:32;;;;;;;4.95;1.23;;;;;;;29.80;31.72;100139.25;10322857;28;20046;-80
2023/10/11 15:13:33;;;;;;;6.93;1.10;;;;;;;29.77;32.07;100131.56;10310224;28;20058;-83
2023/10/11 15:18:36;;;;;;;6.43;1.23;;;;;;;29.56;32.89;100134.75;10317348;28;20104;-82
2023/10/11 15:23:37;;;;;;;4.38;1.02;;;;;;;29.44;32.64;100142.72;10360401;28;20046;-82
2023/10/11 15:28:40;;;;;;;4.07;1.70;;;;;;;29.31;32.73;100143.56;10346704;28;20073;-81
2023/10/11 15:33:43;;;;;;;6.53;1.83;;;;;;;29.26;33.05;100136.97;10336496;28;20114;-82
2023/10/11 15:38:44;;;;;;;7.10;1.42;;;;;;;29.12;33.40;100140.88;10347478;28;20054;-81
2023/10/11 15:43:46;;;;;;;7.18;1.10;;;;;;;28.74;33.30;100146.50;10305032;28;20045;-84
2023/10/11 15:48:49;;;;;;;8.52;1.15;;;;;;;28.43;33.92;100139.47;10330274;28;20066;-80
2023/10/11 15:53:52;;;;;;;5.40;1.20;;;;;;;28.17;34.23;100136.28;10322748;28;20569;-81
2023/10/11 15:58:56;;;;;;;7.00;1.65;;;;;;;27.96;34.93;100143.22;10330160;28;20052;-80
2023/10/11 16:03:58;;;;;;;7.53;1.48;;;;;;;27.74;35.55;100152.06;10327369;28;20042;-85
2023/10/11 16:08:59;;;;;;;7.70;2.30;;;;;;;27.47;36.31;100154.31;10303512;28;20039;-82
2023/10/11 16:14:01;;;;;;;8.73;1.90;;;;;;;27.23;36.83;100140.47;10327387;28;20034;-82
2023/10/11 16:19:03;;;;;;;10.70;2.08;;;;;;;26.89;37.56;100133.06;10309646;28;20049;-87
2023/10/11 16:24:07;;;;;;;9.10;2.10;;;;;;;26.59;38.17;100136.94;10328542;28;20057;-75
2023/10/11 16:29:08;;;;;;;7.55;1.45;;;;;;;26.29;37.85;100136.00;10281612;28;20047;-76
2023/10/11 16:34:10;;;;;;;10.85;2.17;;;;;;;26.04;38.66;100144.44;10303596;28;20047;-76
2023/10/11 16:39:16;;;;;;;7.55;2.03;;;;;;;25.78;39.23;100140.97;10328580;28;20489;-75
2023/10/11 16:44:38;;;;;;;7.93;1.42;;;;;;;25.47;39.08;100147.41;10344067;28;20061;-76
2023/10/11 16:49:42;;;;;;;10.88;1.40;;;;;;;25.29;39.42;100159.84;10361676;28;20038;-75
2023/10/11 16:54:45;;;;;;;6.85;1.40;;;;;;;25.16;39.84;100159.56;10358318;28;20062;-81
2023/10/11 16:59:48;;;;;;;6.20;1.73;;;;;;;25.03;39.95;100153.53;10357309;28;20121;-80
2023/10/11 17:04:50;;;;;;;7.28;1.73;;;;;;;24.91;39.77;100147.50;10313345;28;20072;-81
2023/10/11 17:09:53;;;;;;;8.98;2.30;;;;;;;24.76;40.36;100150.25;10353613;28;20050;-81
2023/10/11 17:14:55;;;;;;;4.72;1.77;;;;;;;24.66;40.22;100157.41;10325695;28;20061;-81
2023/10/11 17:19:57;;;;;;;7.93;1.73;;;;;;;24.53;40.48;100158.78;10354439;28;20062;-80
2023/10/11 17:24:59;;;;;;;9.30;1.80;;;;;;;24.46;40.82;100154.63;10340930;28;20069;-81
2023/10/11 17:30:00;;;;;;;7.38;1.77;;;;;;;24.38;40.69;100149.66;10324804;28;20043;-81
2023/10/11 17:35:05;;;;;;;5.95;2.08;;;;;;;24.25;40.85;100160.09;10365457;28;20038;-81
2023/10/11 17:40:10;;;;;;;13.27;3.33;;;;;;;24.18;41.57;100151.28;10359677;28;20042;-80
2023/10/11 17:45:22;;;;;;;7.13;1.42;;;;;;;24.02;41.35;100155.09;10360611;28;20600;-80
2023/10/11 17:50:26;;;;;;;6.75;1.48;;;;;;;23.88;41.78;100155.59;10348279;28;20043;-81
2023/10/11 17:55:27;;;;;;;6.75;1.35;;;;;;;23.70;42.40;100158.78;10333724;28;20047;-80
2023/10/11 18:00:30;;;;;;;9.88;2.17;;;;;;;23.62;42.35;100162.03;10335778;28;20056;-81
2023/10/11 18:05:31;;;;;;;6.82;1.45;;;;;;;23.57;42.35;100160.09;10326621;28;20045;-81
2023/10/11 18:10:33;;;;;;;15.93;2.38;;;;;;;23.51;42.79;100162.00;10307531;28;20043;-81
2023/10/11 18:15:37;;;;;;;7.68;2.03;;;;;;;23.50;42.88;100154.00;10303410;28;20125;-81
2023/10/11 18:20:41;;;;;;;9.73;2.22;;;;;;;23.46;43.03;100155.63;10334901;28;20077;-81
2023/10/11 18:25:43;;;;;;;6.72;1.88;;;;;;;23.39;42.99;100157.81;10342336;28;20049;-81
2023/10/11 18:30:49;;;;;;;7.93;1.90;;;;;;;23.32;43.14;100152.56;10331534;28;20046;-80
2023/10/11 18:35:53;;;;;;;9.75;1.75;;;;;;;23.22;43.62;100155.25;10363902;28;20035;-81
2023/10/11 18:40:55;;;;;;;6.35;1.48;;;;;;;23.16;43.92;100162.59;10348252;28;20043;-80
2023/10/11 18:45:57;;;;;;;13.32;1.73;;;;;;;23.10;43.96;100148.03;10335369;28;20038;-80
2023/10/11 18:51:00;;;;;;;8.90;1.73;;;;;;;23.05;43.88;100148.00;10338287;28;20057;-81
2023/10/11 18:56:03;;;;;;;9.45;2.15;;;;;;;22.99;44.51;100149.03;10337381;28;20042;-79
2023/10/11 19:01:05;;;;;;;9.85;2.55;;;;;;;22.87;44.70;100151.16;10372258;28;20050;-79
2023/10/11 19:06:14;;;;;;;6.13;2.10;;;;;;;22.76;45.14;100144.75;10369053;28;20076;-79
2023/10/11 19:11:16;;;;;;;10.65;1.58;;;;;;;22.66;45.37;100142.75;10374528;28;20087;-79
2023/10/11 19:16:21;;;;;;;8.98;2.30;;;;;;;22.65;45.71;100135.63;10355835;28;20046;-79
2023/10/11 19:21:27;;;;;;;7.65;1.98;;;;;;;22.55;46.06;100138.25;10350796;28;20057;-81
2023/10/11 19:26:29;;;;;;;11.18;2.35;;;;;;;22.39;46.34;100123.59;10356821;28;20065;-80
2023/10/11 19:31:31;;;;;;;7.32;1.65;;;;;;;22.30;46.89;100123.25;10336800;28;20077;-80
2023/10/11 19:36:33;;;;;;;6.85;1.55;;;;;;;22.25;46.94;100119.66;10355636;28;20058;-78
2023/10/11 19:41:36;;;;;;;13.00;3.33;;;;;;;22.22;47.48;100122.88;10310418;28;20054;-82
2023/10/11 19:46:38;;;;;;;11.40;2.22;;;;;;;22.16;47.78;100109.13;10336058;28;20042;-83
2023/10/11 19:51:40;;;;;;;11.23;2.40;;;;;;;22.12;48.08;100115.41;10335948;28;20066;-83
2023/10/11 19:56:41;;;;;;;12.80;3.35;;;;;;;22.07;47.96;100109.84;10318301;28;20458;-83
2023/10/11 20:01:44;;;;;;;16.05;5.07;;;;;;;22.04;48.32;100118.56;10331834;28;20042;-82
2023/10/11 20:06:46;;;;;;;12.38;2.20;;;;;;;21.99;48.40;100130.31;10349894;28;20081;-82
2023/10/11 20:11:48;;;;;;;11.07;3.13;;;;;;;21.87;48.89;100121.41;10348105;28;20116;-81
2023/10/11 20:16:49;;;;;;;11.88;1.95;;;;;;;21.87;49.05;100122.22;10355184;28;20054;-81
2023/10/11 20:21:51;;;;;;;11.25;2.58;;;;;;;21.84;49.09;100113.69;10308868;28;20046;-82
2023/10/11 20:26:52;;;;;;;8.77;2.10;;;;;;;21.79;49.12;100112.56;10348900;28;20047;-81
2023/10/11 20:31:54;;;;;;;12.15;1.75;;;;;;;21.72;49.62;100116.56;10341223;28;20042;-79
2023/10/11 20:36:59;;;;;;;10.63;1.98;;;;;;;21.74;49.77;100114.41;10359168;28;20042;-79
2023/10/11 20:42:02;;;;;;;9.35;1.75;;;;;;;21.70;50.00;100113.28;10341497;28;20117;-79
2023/10/11 20:47:04;;;;;;;10.57;2.22;;;;;;;21.72;49.98;100117.44;10367371;28;20047;-79
2023/10/11 20:52:05;;;;;;;10.15;2.38;;;;;;;21.67;49.82;100111.88;10357098;28;20043;-80
2023/10/11 20:57:16;;;;;;;12.40;1.52;;;;;;;21.68;50.03;100110.81;10359204;28;20027;-88
2023/10/11 21:02:18;;;;;;;6.30;1.73;;;;;;;21.69;50.16;100104.25;10358209;28;20031;-89
2023/10/11 21:07:20;;;;;;;7.95;1.65;;;;;;;21.67;50.18;100094.66;10361700;23;20038;-62
2023/10/11 21:12:23;;;;;;;5.78;1.48;;;;;;;21.67;50.13;100089.19;10260822;28;20051;-62
2023/10/11 21:17:25;;;;;;;9.23;2.70;;;;;;;21.68;50.04;100082.59;10257022;28;20043;-61
2023/10/11 21:22:30;;;;;;;10.95;2.08;;;;;;;21.71;50.37;100074.72;10277834;28;20049;-61
2023/10/11 21:27:31;;;;;;;9.45;1.40;;;;;;;21.67;50.57;100079.06;10261915;28;20050;-63
2023/10/11 21:32:33;;;;;;;9.02;1.95;;;;;;;21.67;50.45;100090.00;10247260;28;20395;-66
2023/10/11 21:37:36;;;;;;;5.75;1.60;;;;;;;21.58;50.22;100089.63;10217227;28;20067;-66
2023/10/11 21:42:38;;;;;;;9.43;1.20;;;;;;;21.49;50.55;100077.47;10227191;28;20147;-64
2023/10/11 21:47:41;;;;;;;7.32;2.00;;;;;;;21.51;50.65;100078.03;10233878;28;20117;-67
2023/10/11 21:52:43;;;;;;;6.25;1.35;;;;;;;21.36;50.99;100078.63;10214016;28;20129;-66
2023/10/11 21:57:48;;;;;;;11.27;1.48;;;;;;;21.34;51.23;100077.25;10217285;28;20055;-68
2023/10/11 22:02:49;;;;;;;12.05;2.53;;;;;;;21.23;50.97;100080.94;10223580;28;20125;-66
2023/10/11 22:07:51;;;;;;;13.48;2.38;;;;;;;21.17;51.06;100069.13;10223834;28;20073;-68
2023/10/11 22:12:52;;;;;;;5.03;1.95;;;;;;;21.07;51.62;100058.03;10216793;28;20035;-66
2023/10/11 22:17:56;;;;;;;8.32;1.80;;;;;;;21.01;51.96;100051.69;10218927;28;20126;-67
2023/10/11 22:22:58;;;;;;;10.73;2.03;;;;;;;20.91;52.03;100051.53;10219952;28;20598;-67
2023/10/11 22:28:00;;;;;;;8.20;2.10;;;;;;;20.73;52.53;100058.91;10211875;28;20680;-67
2023/10/11 22:33:08;;;;;;;6.07;1.48;;;;;;;20.70;52.99;100053.97;10218774;28;20059;-68
2023/10/11 22:38:09;;;;;;;8.05;1.63;;;;;;;20.60;53.12;100059.28;10213848;28;20051;-67
2023/10/11 22:43:11;;;;;;;7.18;1.85;;;;;;;20.57;52.83;100055.09;10222688;28;20052;-64
2023/10/11 22:48:30;;;;;;;10.02;1.90;;;;;;;20.58;53.12;100070.41;10213265;28;20062;-64
2023/10/11 22:53:35;;;;;;;7.35;2.08;;;;;;;20.53;53.46;100067.59;10221042;28;20048;-63
2023/10/11 22:58:56;;;;;;;5.28;1.65;;;;;;;20.40;53.92;100076.97;10227951;28;20175;-63
2023/10/11 23:03:58;;;;;;;8.55;2.03;;;;;;;20.37;53.85;100073.91;10218907;28;20043;-64
2023/10/11 23:08:59;;;;;;;7.10;1.65;;;;;;;20.44;53.78;100081.91;10222587;28;20054;-64
2023/10/11 23:14:01;;;;;;;6.82;1.90;;;;;;;20.45;53.93;100084.41;10219610;28;20047;-63
2023/10/11 23:19:18;;;;;;;7.75;2.13;;;;;;;20.49;54.61;100091.03;10214200;28;20047;-63
2023/10/11 23:24:33;;;;;;;7.70;1.80;;;;;;;20.51;54.18;100088.03;10222074;28;20421;-63
2023/10/11 23:29:39;;;;;;;8.95;1.80;;;;;;;20.58;54.25;100081.34;10225830;28;20051;-64
2023/10/11 23:34:41;;;;;;;5.43;2.08;;;;;;;20.57;54.25;100084.31;10222133;28;20072;-64
2023/10/11 23:40:10;;;;;;;8.25;2.58;;;;;;;20.53;54.59;100078.53;10220642;28;20047;-64
2023/10/11 23:45:15;;;;;;;15.68;2.38;;;;;;;20.52;54.39;100078.78;10217510;28;20043;-64
2023/10/11 23:50:20;;;;;;;9.30;2.42;;;;;;;20.45;54.96;100069.94;10222575;28;20051;-65
2023/10/11 23:55:25;;;;;;;9.93;2.75;;;;;;;20.46;54.51;100077.03;10217192;28;20047;-61
